createdAt,value
2024-03-02T00:05:46.741Z,6.76
2024-03-02T00:15:49.210Z,6.66
2024-03-02T00:25:52.148Z,6.68
2024-03-02T00:35:54.692Z,6.78
2024-03-02T00:45:57.262Z,6.74
2024-03-02T00:56:00.180Z,6.68
2024-03-02T01:06:01.946Z,6.5
2024-03-02T01:16:04.687Z,6.54
2024-03-02T01:26:06.653Z,6.45
2024-03-02T01:36:09.296Z,6.55
2024-03-02T01:46:11.830Z,6.5
2024-03-02T01:56:13.736Z,6.7
2024-03-02T02:06:15.948Z,6.65
2024-03-02T02:16:19.594Z,6.7
2024-03-02T02:26:22.116Z,6.73
2024-03-02T02:36:24.887Z,6.75
2024-03-02T02:46:27.379Z,6.59
2024-03-02T02:56:29.828Z,6.52
2024-03-02T03:06:32.097Z,6.53
2024-03-02T03:16:35.698Z,6.47
2024-03-02T03:26:38.551Z,6.62
2024-03-02T03:36:41.067Z,6.6
2024-03-02T03:46:43.615Z,6.63
2024-03-02T03:56:46.568Z,6.73
2024-03-02T04:06:48.278Z,6.71
2024-03-02T04:16:51.618Z,6.64
2024-03-02T04:26:53.776Z,6.65
2024-03-02T04:36:56.785Z,6.61
2024-03-02T04:46:59.771Z,6.61
2024-03-02T04:57:02.401Z,6.39
2024-03-02T05:07:04.747Z,6.14
2024-03-02T05:17:07.760Z,6.13
2024-03-02T05:27:09.692Z,6.18
2024-03-02T05:37:12.442Z,6.38
2024-03-02T05:47:14.955Z,6.32
2024-03-02T05:57:17.771Z,6.14
2024-03-02T06:07:21.259Z,6.2
2024-03-02T06:17:24.073Z,6.34
2024-03-02T06:27:26.325Z,6.49
2024-03-02T06:37:29.526Z,6.52
2024-03-02T06:47:31.936Z,6.5
2024-03-02T06:57:34.728Z,6.61
2024-03-02T07:07:37.797Z,6.7
2024-03-02T07:17:40.237Z,6.68
2024-03-02T07:27:42.323Z,6.76
2024-03-02T07:37:45.673Z,7.05
2024-03-02T07:47:48.124Z,7.19
2024-03-02T07:57:51.207Z,7.37
2024-03-02T08:07:54.361Z,7.51
2024-03-02T08:17:57.201Z,7.69
2024-03-02T08:28:00.708Z,7.89
2024-03-02T08:38:04.760Z,8.33
2024-03-02T08:48:07.187Z,9.2
2024-03-02T08:58:10.320Z,9.52
2024-03-02T09:08:13.631Z,9.88
2024-03-02T09:18:16.152Z,9.87
2024-03-02T09:28:18.778Z,10.28
2024-03-02T09:38:21.778Z,10.39
2024-03-02T09:48:24.170Z,10.64
2024-03-02T09:58:27.181Z,10.68
2024-03-02T10:08:29.613Z,10.99
2024-03-02T10:18:31.972Z,11.02
2024-03-02T10:28:34.389Z,11.32
2024-03-02T10:38:37.232Z,11.01
2024-03-02T10:48:39.835Z,11.46
2024-03-02T10:58:43.065Z,12.17
2024-03-02T11:08:47.070Z,13.17
2024-03-02T11:18:49.771Z,13.58
2024-03-02T11:28:53.660Z,14.07
2024-03-02T11:38:56.698Z,14.9
2024-03-02T11:48:59.312Z,14.19
2024-03-02T11:59:02.263Z,13.12
2024-03-02T12:09:04.385Z,13.24
2024-03-02T12:19:07.113Z,13.25
2024-03-02T12:29:10.108Z,13.32
2024-03-02T12:39:13.091Z,14.15
2024-03-02T12:49:15.744Z,15.83
2024-03-02T12:59:19.481Z,18.74
2024-03-02T13:09:22.653Z,22.34
2024-03-02T13:19:27.647Z,25.65
2024-03-02T13:29:30.962Z,25.87
2024-03-02T13:39:33.557Z,22.21
2024-03-02T13:49:36.638Z,23.18
2024-03-02T13:59:41.644Z,21.72
2024-03-02T14:09:43.601Z,17.99
2024-03-02T14:19:45.018Z,18.09
2024-03-02T14:29:47.227Z,18.53
2024-03-02T14:39:49.902Z,18.12
2024-03-02T14:49:53.331Z,20.27
2024-03-02T14:59:55.934Z,19.79
2024-03-02T15:09:58.229Z,16.73
2024-03-02T15:20:01.167Z,16.22
2024-03-02T15:30:03.398Z,20.51
2024-03-02T15:40:06.386Z,19.02
2024-03-02T15:50:09.849Z,13.6
2024-03-02T16:00:11.743Z,12.47
2024-03-02T16:10:14.008Z,12.99
2024-03-02T16:20:17.053Z,12.64
2024-03-02T16:30:19.291Z,11.62
2024-03-02T16:40:21.409Z,10.89
2024-03-02T16:50:23.256Z,10.38
2024-03-02T17:00:25.641Z,10
2024-03-02T17:10:28.633Z,9.56
2024-03-02T17:20:31.166Z,9.34
2024-03-02T17:30:33.291Z,9.18
2024-03-02T17:40:36.208Z,9.03
2024-03-02T17:50:38.802Z,9.1
2024-03-02T18:00:41.202Z,9.12
2024-03-02T18:10:44.059Z,8.95
2024-03-02T18:20:46.889Z,8.88
2024-03-02T18:30:49.256Z,8.71
2024-03-02T18:40:52.080Z,8.5
2024-03-02T18:50:55.890Z,8.42
2024-03-02T19:00:58.402Z,8.62
2024-03-02T19:11:02.028Z,8.89
2024-03-02T19:21:04.918Z,8.78
2024-03-02T19:31:07.980Z,8.76
2024-03-02T19:41:10.377Z,8.72
2024-03-02T19:51:12.680Z,8.53
2024-03-02T20:01:15.450Z,8.42
2024-03-02T20:11:18.419Z,8.29
2024-03-02T20:21:28.990Z,8.14
2024-03-02T20:31:31.060Z,8.16
2024-03-02T20:41:34.295Z,8.19
2024-03-02T20:51:36.118Z,8.13
2024-03-02T21:01:38.561Z,8.01
2024-03-02T21:11:40.803Z,7.99
2024-03-02T21:21:43.849Z,7.92
2024-03-02T21:31:47.281Z,7.81
2024-03-02T21:41:49.371Z,7.59
2024-03-02T21:51:51.822Z,7.5
2024-03-02T22:01:54.754Z,7.36
2024-03-02T22:11:58.160Z,7.26
2024-03-02T22:22:00.482Z,7.07
2024-03-02T22:32:03.484Z,6.96
2024-03-02T22:42:06.386Z,7.04
2024-03-02T22:52:08.179Z,7.18
2024-03-02T23:02:11.127Z,7.03
2024-03-02T23:12:14.090Z,6.72
2024-03-02T23:22:16.229Z,6.76
2024-03-02T23:32:19.283Z,6.75
2024-03-02T23:42:22.208Z,6.48
2024-03-02T23:52:24.227Z,6.39
